createdAt,value
2019-05-25T00:00:56.859Z,17.10
2019-05-25T00:02:49.644Z,17.02
2019-05-25T00:03:49.586Z,16.92
2019-05-25T00:05:42.368Z,16.80
2019-05-25T00:06:42.297Z,16.80
2019-05-25T00:08:35.074Z,16.84
2019-05-25T00:09:35.017Z,16.67
2019-05-25T00:11:27.780Z,16.82
2019-05-25T00:12:27.730Z,16.77
2019-05-25T00:14:20.491Z,16.77
2019-05-25T00:15:20.413Z,16.67
2019-05-25T00:17:13.215Z,16.51
2019-05-25T00:18:13.147Z,16.52
2019-05-25T00:20:05.933Z,16.47
2019-05-25T00:21:05.840Z,16.45
2019-05-25T00:22:58.631Z,16.42
2019-05-25T00:24:11.221Z,16.30
2019-05-25T00:25:51.359Z,16.26
2019-05-25T00:26:51.261Z,16.22
2019-05-25T00:28:44.030Z,16.06
2019-05-25T00:29:43.966Z,16.04
2019-05-25T00:31:36.760Z,16.04
2019-05-25T00:32:36.682Z,16.03
2019-05-25T00:34:29.463Z,15.96
2019-05-25T00:35:29.384Z,16.04
2019-05-25T00:37:22.159Z,16.07
2019-05-25T00:38:22.092Z,15.96
2019-05-25T00:40:14.876Z,15.92
2019-05-25T00:41:14.797Z,15.89
2019-05-25T00:43:07.576Z,15.92
2019-05-25T00:44:07.499Z,15.91
2019-05-25T00:46:00.321Z,15.78
2019-05-25T00:47:00.226Z,15.74
2019-05-25T00:48:52.975Z,15.74
2019-05-25T00:49:52.912Z,15.71
2019-05-25T00:51:45.692Z,15.71
2019-05-25T00:52:45.620Z,15.68
2019-05-25T00:54:38.383Z,15.68
2019-05-25T00:55:38.321Z,15.55
2019-05-25T00:57:31.107Z,15.55
2019-05-25T00:58:31.036Z,15.52
2019-05-25T01:00:23.849Z,15.46
2019-05-25T01:01:24.551Z,15.44
2019-05-25T01:03:16.538Z,15.43
2019-05-25T01:04:16.468Z,15.37
2019-05-25T01:06:09.257Z,15.41
2019-05-25T01:07:09.185Z,15.37
2019-05-25T01:09:01.951Z,15.33
2019-05-25T01:10:02.297Z,15.25
2019-05-25T01:11:54.656Z,15.20
2019-05-25T01:12:54.582Z,15.13
2019-05-25T01:14:47.374Z,15.07
2019-05-25T01:15:47.295Z,15.04
2019-05-25T01:17:40.079Z,15.01
2019-05-25T01:18:40.017Z,15.11
2019-05-25T01:20:32.832Z,14.95
2019-05-25T01:21:32.720Z,14.94
2019-05-25T01:23:25.507Z,14.86
2019-05-25T01:24:25.450Z,15.03
2019-05-25T01:26:18.205Z,14.90
2019-05-25T01:27:18.129Z,14.83
2019-05-25T01:29:10.901Z,14.85
2019-05-25T01:30:10.829Z,14.86
2019-05-25T01:32:03.611Z,14.85
2019-05-25T01:33:03.532Z,14.83
2019-05-25T01:34:56.297Z,14.75
2019-05-25T01:35:56.246Z,14.75
2019-05-25T01:37:49.049Z,14.80
2019-05-25T01:38:48.979Z,14.74
2019-05-25T01:40:41.731Z,14.69
2019-05-25T01:41:41.653Z,14.66
2019-05-25T01:43:34.418Z,14.56
2019-05-25T01:44:34.353Z,14.56
2019-05-25T01:46:27.133Z,14.54
2019-05-25T01:47:27.051Z,14.52
2019-05-25T01:49:19.823Z,14.48
2019-05-25T01:50:19.759Z,14.39
2019-05-25T01:52:12.553Z,14.41
2019-05-25T01:53:12.453Z,14.41
2019-05-25T01:55:32.696Z,14.29
2019-05-25T01:56:32.667Z,14.31
2019-05-25T01:58:25.426Z,14.19
2019-05-25T01:59:25.323Z,14.20
2019-05-25T02:01:18.114Z,14.08
2019-05-25T02:02:18.041Z,14.13
2019-05-25T02:04:10.817Z,14.12
2019-05-25T02:05:10.751Z,14.20
2019-05-25T02:07:03.531Z,14.06
2019-05-25T02:08:03.439Z,14.17
2019-05-25T02:09:56.211Z,14.08
2019-05-25T02:10:56.147Z,14.13
2019-05-25T02:12:48.942Z,14.04
2019-05-25T02:13:48.851Z,14.02
2019-05-25T02:15:41.627Z,13.96
2019-05-25T02:16:41.560Z,14.05
2019-05-25T02:18:34.347Z,13.88
2019-05-25T02:19:34.262Z,13.81
2019-05-25T02:21:27.047Z,13.88
2019-05-25T02:22:26.970Z,13.88
2019-05-25T02:24:19.724Z,13.81
2019-05-25T02:25:19.667Z,13.84
2019-05-25T02:27:12.440Z,13.86
2019-05-25T02:28:12.366Z,13.79
2019-05-25T02:30:05.134Z,13.72
2019-05-25T02:31:05.068Z,13.73
2019-05-25T02:32:57.849Z,13.65
2019-05-25T02:33:57.764Z,13.65
2019-05-25T02:35:50.536Z,13.54
2019-05-25T02:36:50.466Z,13.53
2019-05-25T02:38:43.245Z,13.61
2019-05-25T02:39:43.162Z,13.51
2019-05-25T02:41:35.962Z,13.47
2019-05-25T02:42:35.886Z,13.50
2019-05-25T02:44:28.650Z,13.48
2019-05-25T02:45:28.576Z,13.50
2019-05-25T02:47:21.368Z,13.43
2019-05-25T02:48:21.299Z,13.50
2019-05-25T02:50:14.050Z,13.29
2019-05-25T02:51:13.985Z,13.31
2019-05-25T02:53:06.821Z,13.32
2019-05-25T02:54:06.688Z,13.21
2019-05-25T02:55:59.478Z,13.27
2019-05-25T02:56:59.412Z,13.27
2019-05-25T02:58:52.178Z,13.24
2019-05-25T02:59:52.125Z,13.27
2019-05-25T03:01:44.903Z,13.31
2019-05-25T03:02:44.900Z,13.36
2019-05-25T03:04:37.606Z,13.25
2019-05-25T03:05:37.546Z,13.31
2019-05-25T03:07:30.330Z,13.31
2019-05-25T03:08:30.264Z,13.17
2019-05-25T03:10:23.010Z,13.06
2019-05-25T03:11:22.936Z,13.07
2019-05-25T03:13:15.717Z,13.03
2019-05-25T03:14:15.637Z,13.14
2019-05-25T03:16:08.405Z,13.12
2019-05-25T03:17:08.340Z,13.14
2019-05-25T03:19:01.181Z,13.06
2019-05-25T03:20:01.106Z,13.04
2019-05-25T03:21:53.898Z,12.99
2019-05-25T03:22:53.825Z,12.99
2019-05-25T03:24:46.584Z,12.96
2019-05-25T03:25:49.732Z,12.91
2019-05-25T03:27:39.293Z,12.94
2019-05-25T03:28:39.206Z,13.04
2019-05-25T03:30:31.985Z,12.91
2019-05-25T03:31:31.924Z,12.96
2019-05-25T03:33:24.706Z,12.96
2019-05-25T03:34:24.613Z,12.95
2019-05-25T03:36:17.394Z,12.92
2019-05-25T03:37:17.369Z,12.94
2019-05-25T03:39:10.092Z,12.94
2019-05-25T03:40:10.017Z,12.91
2019-05-25T03:42:02.799Z,12.96
2019-05-25T03:43:02.727Z,12.91
2019-05-25T03:44:55.484Z,12.76
2019-05-25T03:45:55.414Z,12.95
2019-05-25T03:47:48.216Z,12.88
2019-05-25T03:48:48.138Z,12.87
2019-05-25T03:50:40.911Z,12.85
2019-05-25T03:51:40.871Z,12.80
2019-05-25T03:53:33.626Z,12.73
2019-05-25T03:54:33.533Z,12.67
2019-05-25T03:56:26.313Z,12.73
2019-05-25T03:57:26.263Z,12.77
2019-05-25T03:59:19.019Z,12.77
2019-05-25T04:00:18.939Z,12.80
2019-05-25T04:02:11.920Z,12.76
2019-05-25T04:03:11.812Z,12.81
2019-05-25T04:05:04.587Z,12.74
2019-05-25T04:06:04.526Z,12.85
2019-05-25T04:07:57.303Z,12.79
2019-05-25T04:08:57.225Z,12.76
2019-05-25T04:10:49.994Z,12.91
2019-05-25T04:11:49.927Z,12.95
2019-05-25T04:13:42.710Z,13.03
2019-05-25T04:14:42.631Z,12.98
2019-05-25T04:16:35.416Z,12.99
2019-05-25T04:17:35.329Z,13.01
2019-05-25T04:19:28.142Z,13.10
2019-05-25T04:20:28.101Z,13.06
2019-05-25T04:22:20.835Z,13.16
2019-05-25T04:23:20.784Z,13.22
2019-05-25T04:25:13.553Z,13.16
2019-05-25T04:26:21.844Z,13.06
2019-05-25T04:28:06.259Z,13.12
2019-05-25T04:29:06.171Z,13.22
2019-05-25T04:30:58.986Z,13.51
2019-05-25T04:31:58.870Z,13.53
2019-05-25T04:33:51.659Z,13.59
2019-05-25T04:34:51.573Z,13.54
2019-05-25T04:36:44.345Z,13.55
2019-05-25T04:37:44.283Z,13.68
2019-05-25T04:39:37.060Z,13.84
2019-05-25T04:40:37.024Z,13.83
2019-05-25T04:42:29.785Z,14.05
2019-05-25T04:43:29.720Z,14.06
2019-05-25T04:45:22.536Z,14.04
2019-05-25T04:46:22.454Z,14.02
2019-05-25T04:48:15.295Z,14.09
2019-05-25T04:49:15.153Z,14.08
2019-05-25T04:51:07.942Z,14.09
2019-05-25T04:52:07.864Z,14.20
2019-05-25T04:54:00.644Z,14.30
2019-05-25T04:55:00.561Z,14.52
2019-05-25T04:56:53.333Z,15.01
2019-05-25T04:57:53.272Z,15.58
2019-05-25T04:59:46.046Z,17.14
2019-05-25T05:00:45.987Z,17.62
2019-05-25T05:02:38.735Z,18.09
2019-05-25T05:03:38.678Z,18.16
2019-05-25T05:05:31.511Z,18.78
2019-05-25T05:06:31.395Z,19.27
2019-05-25T05:08:24.191Z,19.94
2019-05-25T05:09:24.093Z,20.68
2019-05-25T05:11:16.881Z,20.60
2019-05-25T05:12:16.817Z,20.75
2019-05-25T05:14:09.599Z,21.36
2019-05-25T05:15:09.542Z,21.26
2019-05-25T05:17:02.298Z,21.05
2019-05-25T05:18:02.231Z,21.21
2019-05-25T05:19:55.024Z,20.61
2019-05-25T05:20:54.953Z,20.50
2019-05-25T05:22:47.729Z,21.31
2019-05-25T05:23:47.650Z,21.36
2019-05-25T05:25:40.442Z,21.70
2019-05-25T05:26:54.549Z,21.94
2019-05-25T05:28:33.147Z,21.94
2019-05-25T05:29:33.078Z,21.91
2019-05-25T05:31:25.859Z,21.79
2019-05-25T05:32:27.792Z,21.66
2019-05-25T05:34:18.594Z,22.45
2019-05-25T05:35:18.556Z,22.27
2019-05-25T05:37:11.303Z,22.99
2019-05-25T05:38:11.267Z,23.04
2019-05-25T05:40:04.045Z,23.47
2019-05-25T05:41:03.977Z,23.47
2019-05-25T05:42:56.760Z,23.39
2019-05-25T05:43:56.703Z,23.69
2019-05-25T05:45:49.494Z,24.27
2019-05-25T05:46:49.437Z,24.77
2019-05-25T05:48:42.244Z,24.79
2019-05-25T05:49:42.173Z,24.67
2019-05-25T05:51:34.952Z,23.82
2019-05-25T05:52:34.881Z,23.92
2019-05-25T05:54:27.687Z,23.87
2019-05-25T05:55:27.616Z,24.30
2019-05-25T05:57:20.393Z,23.42
2019-05-25T05:58:20.333Z,23.34
2019-05-25T06:00:13.148Z,23.62
2019-05-25T06:01:13.055Z,23.67
2019-05-25T06:03:05.848Z,22.61
2019-05-25T06:04:05.790Z,22.89
2019-05-25T06:05:58.601Z,22.75
2019-05-25T06:06:58.537Z,22.74
2019-05-25T06:08:51.339Z,23.63
2019-05-25T06:09:51.257Z,23.89
2019-05-25T06:11:44.059Z,24.27
2019-05-25T06:12:43.973Z,24.97
2019-05-25T06:14:36.771Z,24.84
2019-05-25T06:15:36.728Z,24.63
2019-05-25T06:17:29.504Z,23.87
2019-05-25T06:18:29.450Z,23.22
2019-05-25T06:20:22.275Z,21.68
2019-05-25T06:21:22.191Z,20.72
2019-05-25T06:23:14.990Z,21.37
2019-05-25T06:24:14.928Z,21.99
2019-05-25T06:26:07.719Z,23.15
2019-05-25T06:27:07.643Z,22.49
2019-05-25T06:29:00.511Z,23.81
2019-05-25T06:30:00.443Z,23.59
2019-05-25T06:31:53.257Z,22.89
2019-05-25T06:32:53.201Z,23.04
2019-05-25T06:34:45.971Z,21.79
2019-05-25T06:35:45.896Z,20.83
2019-05-25T06:37:38.717Z,20.66
2019-05-25T06:38:38.641Z,21.08
2019-05-25T06:40:31.421Z,20.57
2019-05-25T06:41:31.349Z,20.78
2019-05-25T06:43:24.141Z,20.42
2019-05-25T06:44:24.084Z,19.97
2019-05-25T06:46:16.879Z,19.24
2019-05-25T06:47:16.800Z,19.38
2019-05-25T06:49:09.592Z,18.53
2019-05-25T06:50:09.522Z,18.32
2019-05-25T06:52:02.317Z,18.01
2019-05-25T06:53:02.249Z,18.01
2019-05-25T06:54:55.046Z,17.95
2019-05-25T06:55:54.986Z,17.98
2019-05-25T06:57:47.765Z,17.95
2019-05-25T06:58:47.695Z,17.95
2019-05-25T07:00:40.497Z,17.95
2019-05-25T07:01:40.421Z,17.77
2019-05-25T07:03:33.214Z,17.36
2019-05-25T07:04:33.146Z,17.17
2019-05-25T07:06:25.985Z,17.40
2019-05-25T07:07:25.881Z,17.27
2019-05-25T07:09:18.669Z,17.20
2019-05-25T07:10:18.596Z,17.25
2019-05-25T07:12:11.387Z,17.22
2019-05-25T07:13:11.308Z,17.17
2019-05-25T07:15:04.101Z,17.21
2019-05-25T07:16:04.025Z,17.20
2019-05-25T07:17:56.788Z,17.03
2019-05-25T07:18:56.733Z,17.05
2019-05-25T07:20:49.523Z,17.14
2019-05-25T07:21:49.446Z,17.14
2019-05-25T07:23:42.237Z,17.05
2019-05-25T07:24:42.174Z,17.12
2019-05-25T07:26:35.010Z,17.06
2019-05-25T07:27:34.896Z,17.03
2019-05-25T07:29:27.667Z,17.17
2019-05-25T07:30:27.620Z,17.09
2019-05-25T07:32:20.409Z,16.92
2019-05-25T07:33:20.317Z,16.92
2019-05-25T07:35:13.094Z,16.91
2019-05-25T07:36:13.022Z,16.75
2019-05-25T07:38:05.792Z,16.80
2019-05-25T07:39:05.732Z,16.81
2019-05-25T07:40:58.541Z,16.85
2019-05-25T07:41:58.444Z,16.87
2019-05-25T07:43:51.237Z,16.84
2019-05-25T07:44:51.180Z,16.85
2019-05-25T07:46:43.960Z,16.82
2019-05-25T07:47:43.884Z,16.85
2019-05-25T07:49:36.666Z,16.95
2019-05-25T07:50:36.599Z,17.06
2019-05-25T07:52:29.393Z,17.09
2019-05-25T07:53:29.320Z,17.12
2019-05-25T07:55:22.115Z,16.90
2019-05-25T07:56:22.041Z,17.03
2019-05-25T07:58:18.087Z,17.10
2019-05-25T07:59:14.759Z,17.00
2019-05-25T08:01:07.559Z,17.02
2019-05-25T08:02:07.466Z,17.02
2019-05-25T08:04:00.265Z,16.91
2019-05-25T08:05:00.195Z,16.90
2019-05-25T08:06:52.987Z,16.91
2019-05-25T08:07:52.907Z,16.88
2019-05-25T08:09:45.681Z,16.99
2019-05-25T08:10:45.612Z,17.12
2019-05-25T08:12:38.408Z,17.12
2019-05-25T08:13:38.338Z,17.09
2019-05-25T08:15:31.118Z,17.05
2019-05-25T08:16:31.044Z,17.00
2019-05-25T08:18:23.815Z,16.91
2019-05-25T08:19:23.764Z,16.85
2019-05-25T08:21:16.546Z,16.80
2019-05-25T08:22:16.475Z,16.87
2019-05-25T08:24:09.249Z,16.60
2019-05-25T08:25:09.577Z,16.73
2019-05-25T08:27:02.188Z,16.63
2019-05-25T08:28:02.119Z,16.81
2019-05-25T08:29:54.911Z,16.82
2019-05-25T08:30:54.836Z,16.73
2019-05-25T08:32:47.614Z,16.48
2019-05-25T08:33:47.543Z,16.47
2019-05-25T08:35:40.324Z,16.48
2019-05-25T08:36:40.265Z,16.52
2019-05-25T08:38:33.043Z,16.66
2019-05-25T08:39:32.971Z,16.60
2019-05-25T08:41:25.757Z,16.73
2019-05-25T08:42:25.702Z,16.70
2019-05-25T08:44:18.466Z,16.48
2019-05-25T08:45:18.406Z,16.44
2019-05-25T08:47:12.948Z,16.36
2019-05-25T08:48:12.846Z,16.36
2019-05-25T08:50:05.623Z,16.51
2019-05-25T08:51:05.553Z,16.51
2019-05-25T08:52:58.370Z,16.54
2019-05-25T08:53:58.426Z,16.57
2019-05-25T08:55:51.037Z,16.55
2019-05-25T08:56:51.363Z,16.70
2019-05-25T08:58:48.412Z,16.63
2019-05-25T08:59:43.683Z,16.80
2019-05-25T09:01:36.521Z,16.95
2019-05-25T09:02:36.400Z,17.06
2019-05-25T09:04:29.169Z,16.95
2019-05-25T09:05:29.107Z,16.84
2019-05-25T09:07:21.891Z,16.63
2019-05-25T09:08:21.820Z,16.65
2019-05-25T09:10:14.598Z,16.72
2019-05-25T09:11:14.546Z,16.91
2019-05-25T09:13:07.503Z,17.25
2019-05-25T09:14:07.253Z,17.53
2019-05-25T09:16:00.026Z,17.66
2019-05-25T09:16:59.970Z,17.68
2019-05-25T09:18:52.754Z,17.83
2019-05-25T09:19:52.678Z,17.80
2019-05-25T09:22:01.449Z,17.62
2019-05-25T09:22:45.396Z,17.58
2019-05-25T09:24:38.182Z,17.58
2019-05-25T09:25:38.119Z,17.65
2019-05-25T09:27:30.925Z,17.86
2019-05-25T09:28:30.846Z,17.89
2019-05-25T09:30:23.630Z,18.09
2019-05-25T09:31:23.546Z,18.17
2019-05-25T09:33:16.338Z,18.38
2019-05-25T09:34:16.268Z,18.47
2019-05-25T09:36:09.045Z,18.60
2019-05-25T09:37:08.979Z,18.57
2019-05-25T09:39:01.786Z,18.59
2019-05-25T09:40:01.709Z,18.46
2019-05-25T09:41:54.504Z,18.19
2019-05-25T09:42:54.435Z,17.81
2019-05-25T09:44:47.245Z,17.74
2019-05-25T09:45:47.176Z,17.66
2019-05-25T09:47:39.968Z,17.73
2019-05-25T09:48:39.892Z,17.76
2019-05-25T09:50:32.710Z,17.70
2019-05-25T09:51:32.614Z,17.79
2019-05-25T09:53:25.445Z,17.91
2019-05-25T09:54:25.359Z,17.80
2019-05-25T09:56:18.192Z,17.98
2019-05-25T09:57:18.121Z,18.28
2019-05-25T09:59:19.770Z,18.82
2019-05-25T10:00:10.867Z,18.96
2019-05-25T10:02:03.651Z,19.23
2019-05-25T10:03:03.567Z,19.53
2019-05-25T10:04:56.351Z,19.83
2019-05-25T10:05:56.294Z,19.86
2019-05-25T10:07:49.085Z,19.79
2019-05-25T10:08:49.001Z,19.79
2019-05-25T10:10:41.771Z,19.98
2019-05-25T10:11:41.718Z,20.12
2019-05-25T10:13:34.481Z,19.75
2019-05-25T10:14:34.413Z,19.87
2019-05-25T10:16:27.200Z,19.86
2019-05-25T10:17:27.129Z,19.80
2019-05-25T10:19:19.929Z,19.31
2019-05-25T10:20:19.852Z,19.27
2019-05-25T10:22:12.641Z,19.09
2019-05-25T10:23:12.592Z,18.93
2019-05-25T10:25:05.324Z,19.07
2019-05-25T10:26:05.262Z,19.27
2019-05-25T10:27:58.055Z,19.47
2019-05-25T10:28:57.978Z,19.49
2019-05-25T10:30:50.773Z,19.95
2019-05-25T10:31:50.708Z,21.09
2019-05-25T10:33:43.504Z,21.12
2019-05-25T10:34:43.421Z,21.22
2019-05-25T10:36:36.200Z,20.91
2019-05-25T10:37:36.143Z,20.73
2019-05-25T10:39:28.938Z,20.64
2019-05-25T10:40:28.857Z,20.60
2019-05-25T10:42:21.650Z,20.40
2019-05-25T10:43:21.578Z,20.30
2019-05-25T10:45:14.365Z,20.01
2019-05-25T10:46:14.291Z,19.76
2019-05-25T10:48:07.088Z,19.50
2019-05-25T10:49:07.014Z,19.49
2019-05-25T10:50:59.839Z,19.42
2019-05-25T10:51:59.756Z,19.52
2019-05-25T10:53:52.538Z,19.42
2019-05-25T10:54:52.471Z,19.52
2019-05-25T10:56:45.248Z,19.25
2019-05-25T10:57:45.176Z,19.20
2019-05-25T10:59:51.876Z,19.09
2019-05-25T11:00:37.902Z,19.06
2019-05-25T11:02:30.685Z,19.13
2019-05-25T11:03:30.625Z,18.97
2019-05-25T11:05:23.431Z,18.93
2019-05-25T11:06:23.343Z,18.93
2019-05-25T11:08:16.141Z,18.91
2019-05-25T11:09:16.052Z,18.89
2019-05-25T11:11:08.835Z,18.78
2019-05-25T11:12:08.763Z,18.74
2019-05-25T11:14:01.550Z,18.76
2019-05-25T11:15:01.464Z,18.68
2019-05-25T11:16:54.253Z,18.78
2019-05-25T11:17:54.214Z,18.68
2019-05-25T11:19:46.990Z,19.01
2019-05-25T11:20:46.918Z,19.24
2019-05-25T11:22:39.727Z,19.13
2019-05-25T11:23:39.638Z,19.06
2019-05-25T11:25:32.431Z,19.31
2019-05-25T11:26:32.346Z,19.46
2019-05-25T11:28:25.144Z,19.80
2019-05-25T11:29:25.086Z,20.01
2019-05-25T11:31:17.844Z,20.30
2019-05-25T11:32:17.780Z,20.53
2019-05-25T11:34:10.563Z,20.56
2019-05-25T11:35:10.490Z,20.56
2019-05-25T11:37:03.271Z,20.33
2019-05-25T11:38:03.189Z,20.17
2019-05-25T11:39:55.973Z,20.19
2019-05-25T11:40:55.903Z,20.00
2019-05-25T11:42:48.687Z,20.00
2019-05-25T11:43:48.614Z,20.10
2019-05-25T11:45:43.373Z,20.16
2019-05-25T11:46:41.340Z,19.83
2019-05-25T11:48:34.109Z,19.78
2019-05-25T11:49:34.036Z,19.60
2019-05-25T11:51:26.827Z,19.58
2019-05-25T11:52:26.745Z,19.68
2019-05-25T11:54:19.524Z,19.71
2019-05-25T11:55:19.478Z,19.64
2019-05-25T11:57:12.283Z,19.50
2019-05-25T11:58:12.224Z,19.30
2019-05-25T12:00:04.999Z,19.49
2019-05-25T12:01:04.924Z,19.52
2019-05-25T12:02:57.692Z,19.46
2019-05-25T12:03:57.634Z,19.38
2019-05-25T12:05:50.406Z,19.16
2019-05-25T12:06:50.333Z,19.20
2019-05-25T12:08:43.121Z,19.06
2019-05-25T12:09:43.042Z,18.96
2019-05-25T12:11:35.815Z,18.78
2019-05-25T12:12:35.750Z,18.90
2019-05-25T12:14:28.540Z,18.99
2019-05-25T12:15:28.464Z,19.06
2019-05-25T12:17:21.268Z,19.16
2019-05-25T12:18:21.187Z,19.38
2019-05-25T12:20:13.968Z,19.21
2019-05-25T12:21:13.894Z,19.25
2019-05-25T12:23:06.828Z,19.57
2019-05-25T12:24:06.690Z,19.57
2019-05-25T12:25:59.455Z,19.58
2019-05-25T12:26:59.446Z,19.49
2019-05-25T12:28:52.179Z,19.25
2019-05-25T12:29:52.199Z,19.28
2019-05-25T12:31:44.912Z,19.28
2019-05-25T12:32:44.819Z,19.16
2019-05-25T12:34:37.630Z,18.78
2019-05-25T12:35:37.540Z,18.86
2019-05-25T12:37:30.324Z,18.96
2019-05-25T12:38:30.260Z,18.97
2019-05-25T12:40:23.111Z,19.15
2019-05-25T12:41:23.025Z,19.20
2019-05-25T12:43:15.849Z,19.32
2019-05-25T12:44:15.760Z,19.46
2019-05-25T12:46:08.611Z,19.64
2019-05-25T12:47:08.543Z,19.57
2019-05-25T12:49:01.360Z,19.71
2019-05-25T12:50:01.267Z,19.79
2019-05-25T12:51:54.145Z,19.72
2019-05-25T12:52:53.973Z,19.70
2019-05-25T12:54:46.843Z,19.67
2019-05-25T12:55:46.685Z,19.76
2019-05-25T12:57:39.493Z,19.70
2019-05-25T12:58:39.415Z,19.62
2019-05-25T13:00:32.206Z,19.43
2019-05-25T13:01:32.198Z,19.40
2019-05-25T13:03:28.326Z,19.57
2019-05-25T13:04:25.373Z,19.53
2019-05-25T13:06:18.539Z,19.45
2019-05-25T13:07:18.179Z,19.38
2019-05-25T13:09:10.968Z,19.53
2019-05-25T13:10:10.892Z,19.75
2019-05-25T13:12:03.699Z,19.94
2019-05-25T13:13:03.633Z,20.05
2019-05-25T13:14:56.453Z,20.04
2019-05-25T13:15:56.361Z,20.22
2019-05-25T13:17:49.275Z,20.25
2019-05-25T13:18:49.224Z,20.15
2019-05-25T13:20:41.997Z,20.10
2019-05-25T13:21:41.924Z,20.15
2019-05-25T13:23:34.707Z,20.22
2019-05-25T13:24:34.647Z,20.30
2019-05-25T13:26:27.451Z,20.31
2019-05-25T13:27:27.414Z,20.30
2019-05-25T13:29:20.148Z,20.16
2019-05-25T13:30:20.085Z,19.86
2019-05-25T13:32:12.909Z,19.71
2019-05-25T13:33:12.827Z,19.72
2019-05-25T13:35:05.624Z,19.72
2019-05-25T13:36:05.553Z,19.70
2019-05-25T13:37:58.329Z,19.79
2019-05-25T13:38:58.317Z,19.71
2019-05-25T13:40:51.122Z,19.75
2019-05-25T13:41:50.994Z,19.67
2019-05-25T13:43:43.830Z,19.52
2019-05-25T13:44:43.725Z,19.49
2019-05-25T13:46:36.519Z,19.65
2019-05-25T13:47:36.442Z,19.62
2019-05-25T13:49:29.232Z,19.67
2019-05-25T13:50:29.167Z,19.53
2019-05-25T13:52:21.984Z,19.70
2019-05-25T13:53:22.527Z,19.71
2019-05-25T13:55:14.718Z,19.67
2019-05-25T13:56:14.624Z,19.75
2019-05-25T13:58:07.432Z,19.89
2019-05-25T13:59:07.365Z,20.00
2019-05-25T14:01:00.138Z,20.07
2019-05-25T14:02:00.101Z,19.78
2019-05-25T14:03:55.739Z,19.75
2019-05-25T14:04:52.846Z,19.67
2019-05-25T14:06:46.456Z,19.62
2019-05-25T14:07:46.413Z,19.62
2019-05-25T14:09:39.210Z,19.57
2019-05-25T14:10:39.118Z,19.60
2019-05-25T14:12:31.910Z,19.42
2019-05-25T14:13:31.822Z,19.38
2019-05-25T14:15:24.631Z,19.23
2019-05-25T14:16:24.552Z,19.17
2019-05-25T14:18:17.326Z,18.68
2019-05-25T14:19:17.256Z,18.86
2019-05-25T14:21:10.050Z,18.83
2019-05-25T14:22:09.995Z,19.01
2019-05-25T14:24:02.768Z,19.05
2019-05-25T14:25:02.695Z,18.89
2019-05-25T14:26:55.504Z,18.90
2019-05-25T14:27:55.444Z,18.84
2019-05-25T14:29:48.212Z,18.87
2019-05-25T14:30:48.149Z,18.97
2019-05-25T14:32:40.960Z,18.76
2019-05-25T14:33:40.882Z,18.75
2019-05-25T14:35:33.667Z,18.97
2019-05-25T14:36:33.591Z,18.99
2019-05-25T14:38:26.445Z,18.76
2019-05-25T14:39:26.302Z,18.76
2019-05-25T14:41:19.114Z,18.72
2019-05-25T14:42:19.059Z,18.82
2019-05-25T14:44:11.826Z,18.87
2019-05-25T14:45:11.749Z,18.76
2019-05-25T14:47:04.562Z,18.86
2019-05-25T14:48:04.471Z,18.87
2019-05-25T14:49:57.242Z,18.93
2019-05-25T14:50:57.180Z,18.91
2019-05-25T14:52:49.973Z,18.91
2019-05-25T14:53:49.905Z,18.79
2019-05-25T14:55:42.732Z,18.78
2019-05-25T14:56:42.656Z,18.86
2019-05-25T14:58:35.474Z,18.82
2019-05-25T14:59:35.413Z,18.69
2019-05-25T15:01:28.259Z,18.66
2019-05-25T15:02:28.098Z,18.62
2019-05-25T15:04:20.889Z,18.47
2019-05-25T15:05:20.823Z,18.38
2019-05-25T15:07:13.672Z,18.23
2019-05-25T15:08:13.590Z,18.14
2019-05-25T15:10:06.383Z,18.29
2019-05-25T15:11:06.265Z,18.29
2019-05-25T15:12:59.087Z,18.36
2019-05-25T15:13:59.013Z,18.51
2019-05-25T15:15:51.823Z,18.53
2019-05-25T15:16:51.777Z,18.62
2019-05-25T15:18:44.584Z,18.51
2019-05-25T15:19:44.525Z,18.49
2019-05-25T15:21:37.449Z,18.34
2019-05-25T15:22:37.216Z,18.39
2019-05-25T15:24:30.125Z,18.35
2019-05-25T15:25:29.939Z,18.47
2019-05-25T15:27:22.774Z,18.57
2019-05-25T15:28:22.676Z,18.69
2019-05-25T15:30:15.466Z,18.56
2019-05-25T15:31:15.420Z,18.65
2019-05-25T15:33:08.191Z,18.71
2019-05-25T15:34:08.109Z,18.74
2019-05-25T15:36:00.913Z,18.71
2019-05-25T15:37:00.850Z,18.72
2019-05-25T15:38:53.685Z,18.71
2019-05-25T15:39:53.594Z,18.66
2019-05-25T15:41:46.388Z,18.94
2019-05-25T15:42:46.270Z,18.89
2019-05-25T15:44:39.099Z,19.15
2019-05-25T15:45:39.020Z,19.17
2019-05-25T15:47:31.866Z,18.78
2019-05-25T15:48:31.742Z,18.75
2019-05-25T15:50:24.542Z,18.65
2019-05-25T15:51:24.504Z,18.54
2019-05-25T15:53:17.253Z,18.53
2019-05-25T15:54:17.172Z,18.53
2019-05-25T15:56:09.957Z,18.64
2019-05-25T15:57:09.917Z,18.53
2019-05-25T15:59:02.751Z,18.46
2019-05-25T16:00:02.679Z,18.54
2019-05-25T16:01:55.468Z,18.49
2019-05-25T16:02:55.391Z,18.50
2019-05-25T16:04:48.226Z,18.29
2019-05-25T16:05:48.164Z,18.31
2019-05-25T16:07:40.970Z,17.94
2019-05-25T16:08:40.947Z,18.09
2019-05-25T16:10:33.688Z,18.13
2019-05-25T16:11:33.690Z,18.20
2019-05-25T16:13:26.424Z,18.10
2019-05-25T16:14:26.354Z,18.11
2019-05-25T16:16:19.121Z,17.84
2019-05-25T16:17:19.050Z,17.91
2019-05-25T16:19:11.846Z,17.79
2019-05-25T16:20:11.771Z,17.68
2019-05-25T16:22:04.634Z,17.79
2019-05-25T16:23:04.562Z,17.66
2019-05-25T16:24:57.337Z,17.77
2019-05-25T16:25:57.267Z,17.68
2019-05-25T16:27:50.087Z,17.71
2019-05-25T16:28:49.975Z,17.71
2019-05-25T16:30:42.822Z,17.83
2019-05-25T16:31:42.701Z,17.83
2019-05-25T16:33:35.497Z,17.76
2019-05-25T16:34:35.429Z,17.79
2019-05-25T16:36:28.223Z,17.83
2019-05-25T16:37:28.246Z,17.73
2019-05-25T16:39:20.964Z,17.70
2019-05-25T16:40:20.915Z,17.65
2019-05-25T16:42:13.708Z,17.79
2019-05-25T16:43:13.635Z,17.73
2019-05-25T16:45:06.425Z,17.62
2019-05-25T16:46:06.346Z,17.62
2019-05-25T16:47:59.166Z,17.58
2019-05-25T16:48:59.072Z,17.63
2019-05-25T16:50:51.870Z,17.74
2019-05-25T16:51:51.820Z,17.58
2019-05-25T16:53:44.603Z,17.58
2019-05-25T16:54:44.528Z,17.58
2019-05-25T16:56:37.319Z,17.63
2019-05-25T16:57:37.297Z,17.54
2019-05-25T16:59:30.114Z,17.58
2019-05-25T17:00:30.025Z,17.55
2019-05-25T17:02:22.789Z,17.49
2019-05-25T17:03:28.068Z,17.39
2019-05-25T17:05:15.491Z,17.43
2019-05-25T17:06:15.419Z,17.42
2019-05-25T17:08:08.228Z,17.38
2019-05-25T17:09:08.163Z,17.45
2019-05-25T17:11:00.917Z,17.43
2019-05-25T17:12:00.938Z,17.39
2019-05-25T17:13:53.646Z,17.45
2019-05-25T17:14:53.649Z,17.40
2019-05-25T17:16:46.357Z,17.47
2019-05-25T17:17:46.290Z,17.47
2019-05-25T17:19:39.142Z,17.35
2019-05-25T17:20:39.034Z,17.33
2019-05-25T17:22:31.784Z,17.21
2019-05-25T17:23:31.722Z,17.07
2019-05-25T17:25:24.523Z,17.09
2019-05-25T17:26:24.455Z,17.02
2019-05-25T17:28:17.224Z,17.12
2019-05-25T17:29:17.133Z,16.98
2019-05-25T17:31:09.918Z,17.05
2019-05-25T17:32:09.938Z,17.09
2019-05-25T17:34:02.673Z,16.92
2019-05-25T17:35:02.570Z,17.00
2019-05-25T17:36:55.436Z,17.03
2019-05-25T17:37:55.298Z,17.05
2019-05-25T17:39:48.071Z,16.96
2019-05-25T17:40:48.026Z,16.92
2019-05-25T17:42:40.771Z,16.96
2019-05-25T17:43:40.701Z,16.98
2019-05-25T17:45:33.542Z,16.90
2019-05-25T17:46:33.416Z,16.91
2019-05-25T17:48:26.225Z,16.88
2019-05-25T17:49:26.125Z,16.80
2019-05-25T17:51:18.926Z,16.73
2019-05-25T17:52:22.605Z,16.78
2019-05-25T17:54:11.713Z,16.88
2019-05-25T17:55:11.602Z,16.96
2019-05-25T17:57:04.396Z,16.91
2019-05-25T17:58:04.335Z,16.85
2019-05-25T17:59:59.475Z,16.92
2019-05-25T18:00:57.056Z,16.96
2019-05-25T18:02:49.875Z,17.03
2019-05-25T18:04:05.584Z,16.90
2019-05-25T18:05:42.641Z,16.80
2019-05-25T18:06:42.548Z,16.75
2019-05-25T18:08:35.356Z,16.75
2019-05-25T18:09:35.281Z,16.65
2019-05-25T18:11:28.070Z,16.67
2019-05-25T18:12:28.044Z,16.72
2019-05-25T18:14:20.794Z,16.66
2019-05-25T18:15:20.715Z,16.63
2019-05-25T18:17:13.518Z,16.70
2019-05-25T18:18:13.474Z,16.51
2019-05-25T18:20:06.234Z,16.66
2019-05-25T18:21:06.161Z,16.63
2019-05-25T18:22:58.933Z,16.54
2019-05-25T18:23:58.860Z,16.52
2019-05-25T18:25:51.716Z,16.45
2019-05-25T18:26:51.583Z,16.45
2019-05-25T18:28:44.381Z,16.36
2019-05-25T18:29:44.352Z,16.26
2019-05-25T18:31:37.089Z,16.29
2019-05-25T18:32:37.020Z,16.14